sensor_id;sensor_type;location;lat;lon;timestamp;P1;durP1;ratioP1;P2;durP2;ratioP2
2972;SDS011;1496;51.404;7.232;2023-05-10T00:01:35;5.20;;;3.87;;
2972;SDS011;1496;51.404;7.232;2023-05-10T00:04:01;3.57;;;2.47;;
2972;SDS011;1496;51.404;7.232;2023-05-10T00:06:29;4.10;;;2.37;;
2972;SDS011;1496;51.404;7.232;2023-05-10T00:08:56;2.63;;;2.00;;
2972;SDS011;1496;51.404;7.232;2023-05-10T00:11:23;4.13;;;2.23;;
2972;SDS011;1496;51.404;7.232;2023-05-10T00:13:49;2.90;;;2.30;;
2972;SDS011;1496;51.404;7.232;2023-05-10T00:16:17;3.00;;;2.47;;
2972;SDS011;1496;51.404;7.232;2023-05-10T00:18:45;2.67;;;2.07;;
2972;SDS011;1496;51.404;7.232;2023-05-10T00:21:11;4.97;;;3.47;;
2972;SDS011;1496;51.404;7.232;2023-05-10T00:23:38;5.20;;;3.03;;
2972;SDS011;1496;51.404;7.232;2023-05-10T00:26:05;4.73;;;3.30;;
2972;SDS011;1496;51.404;7.232;2023-05-10T00:28:37;5.07;;;3.60;;
2972;SDS011;1496;51.404;7.232;2023-05-10T00:31:04;9.17;;;5.00;;
2972;SDS011;1496;51.404;7.232;2023-05-10T00:33:31;5.70;;;4.70;;
2972;SDS011;1496;51.404;7.232;2023-05-10T00:35:59;7.50;;;4.80;;
2972;SDS011;1496;51.404;7.232;2023-05-10T00:38:26;8.47;;;5.37;;
2972;SDS011;1496;51.404;7.232;2023-05-10T00:40:53;6.83;;;5.77;;
2972;SDS011;1496;51.404;7.232;2023-05-10T00:43:26;6.47;;;4.80;;
2972;SDS011;1496;51.404;7.232;2023-05-10T00:45:52;9.20;;;6.07;;
2972;SDS011;1496;51.404;7.232;2023-05-10T00:48:23;7.33;;;5.20;;
2972;SDS011;1496;51.404;7.232;2023-05-10T00:50:50;6.67;;;5.00;;
2972;SDS011;1496;51.404;7.232;2023-05-10T00:53:17;9.90;;;6.40;;
2972;SDS011;1496;51.404;7.232;2023-05-10T00:55:44;7.93;;;5.30;;
2972;SDS011;1496;51.404;7.232;2023-05-10T00:58:12;8.13;;;6.13;;
2972;SDS011;1496;51.404;7.232;2023-05-10T01:00:41;9.90;;;6.20;;
2972;SDS011;1496;51.404;7.232;2023-05-10T01:03:12;9.33;;;6.20;;
2972;SDS011;1496;51.404;7.232;2023-05-10T01:05:42;9.23;;;6.17;;
2972;SDS011;1496;51.404;7.232;2023-05-10T01:08:28;9.33;;;7.17;;
2972;SDS011;1496;51.404;7.232;2023-05-10T01:10:55;7.23;;;6.00;;
2972;SDS011;1496;51.404;7.232;2023-05-10T01:13:56;7.53;;;5.20;;
2972;SDS011;1496;51.404;7.232;2023-05-10T01:16:18;8.13;;;5.50;;
2972;SDS011;1496;51.404;7.232;2023-05-10T01:18:47;7.70;;;5.53;;
2972;SDS011;1496;51.404;7.232;2023-05-10T01:38:42;9.90;;;7.00;;
2972;SDS011;1496;51.404;7.232;2023-05-10T01:46:45;12.10;;;8.13;;
2972;SDS011;1496;51.404;7.232;2023-05-10T01:49:21;10.20;;;7.40;;
2972;SDS011;1496;51.404;7.232;2023-05-10T01:51:54;9.40;;;7.37;;
2972;SDS011;1496;51.404;7.232;2023-05-10T01:54:28;8.60;;;6.40;;
2972;SDS011;1496;51.404;7.232;2023-05-10T01:56:58;11.73;;;8.07;;
2972;SDS011;1496;51.404;7.232;2023-05-10T01:59:29;9.87;;;7.30;;
2972;SDS011;1496;51.404;7.232;2023-05-10T02:02:05;12.93;;;6.73;;
2972;SDS011;1496;51.404;7.232;2023-05-10T02:04:38;10.00;;;7.30;;
2972;SDS011;1496;51.404;7.232;2023-05-10T02:07:06;12.67;;;7.17;;
2972;SDS011;1496;51.404;7.232;2023-05-10T02:09:35;10.10;;;7.17;;
2972;SDS011;1496;51.404;7.232;2023-05-10T02:12:03;9.60;;;6.63;;
2972;SDS011;1496;51.404;7.232;2023-05-10T02:14:34;11.80;;;7.47;;
2972;SDS011;1496;51.404;7.232;2023-05-10T02:17:04;9.97;;;6.97;;
2972;SDS011;1496;51.404;7.232;2023-05-10T02:19:32;11.90;;;8.07;;
2972;SDS011;1496;51.404;7.232;2023-05-10T02:21:59;12.90;;;7.30;;
2972;SDS011;1496;51.404;7.232;2023-05-10T02:24:28;11.83;;;7.47;;
2972;SDS011;1496;51.404;7.232;2023-05-10T02:26:56;11.23;;;8.00;;
2972;SDS011;1496;51.404;7.232;2023-05-10T02:29:24;11.70;;;7.63;;
2972;SDS011;1496;51.404;7.232;2023-05-10T02:31:54;13.37;;;8.67;;
2972;SDS011;1496;51.404;7.232;2023-05-10T02:34:23;14.07;;;8.90;;
2972;SDS011;1496;51.404;7.232;2023-05-10T02:36:53;12.67;;;8.27;;
2972;SDS011;1496;51.404;7.232;2023-05-10T02:39:21;14.83;;;8.50;;
2972;SDS011;1496;51.404;7.232;2023-05-10T02:41:51;15.80;;;8.70;;
2972;SDS011;1496;51.404;7.232;2023-05-10T02:44:19;16.50;;;8.17;;
2972;SDS011;1496;51.404;7.232;2023-05-10T02:46:48;13.23;;;8.40;;
2972;SDS011;1496;51.404;7.232;2023-05-10T02:49:15;14.53;;;8.73;;
2972;SDS011;1496;51.404;7.232;2023-05-10T02:51:47;14.00;;;8.30;;
2972;SDS011;1496;51.404;7.232;2023-05-10T02:54:19;14.57;;;9.40;;
2972;SDS011;1496;51.404;7.232;2023-05-10T02:56:54;11.50;;;8.07;;
2972;SDS011;1496;51.404;7.232;2023-05-10T02:59:26;13.90;;;8.70;;
2972;SDS011;1496;51.404;7.232;2023-05-10T03:01:53;14.70;;;9.70;;
2972;SDS011;1496;51.404;7.232;2023-05-10T03:04:21;14.43;;;9.53;;
2972;SDS011;1496;51.404;7.232;2023-05-10T03:06:48;16.10;;;9.30;;
2972;SDS011;1496;51.404;7.232;2023-05-10T03:09:15;13.33;;;9.03;;
2972;SDS011;1496;51.404;7.232;2023-05-10T03:15:14;13.80;;;9.23;;
2972;SDS011;1496;51.404;7.232;2023-05-10T03:20:43;18.93;;;10.50;;
2972;SDS011;1496;51.404;7.232;2023-05-10T03:25:44;19.10;;;11.50;;
2972;SDS011;1496;51.404;7.232;2023-05-10T03:28:14;20.23;;;11.67;;
2972;SDS011;1496;51.404;7.232;2023-05-10T03:30:42;23.30;;;11.50;;
2972;SDS011;1496;51.404;7.232;2023-05-10T03:33:11;24.00;;;13.47;;
2972;SDS011;1496;51.404;7.232;2023-05-10T03:35:41;21.57;;;12.90;;
2972;SDS011;1496;51.404;7.232;2023-05-10T03:38:14;22.07;;;13.90;;
2972;SDS011;1496;51.404;7.232;2023-05-10T03:40:40;19.60;;;12.83;;
2972;SDS011;1496;51.404;7.232;2023-05-10T03:43:07;23.13;;;14.03;;
2972;SDS011;1496;51.404;7.232;2023-05-10T03:45:34;20.70;;;13.63;;
2972;SDS011;1496;51.404;7.232;2023-05-10T03:48:02;20.03;;;12.83;;
2972;SDS011;1496;51.404;7.232;2023-05-10T03:50:29;24.13;;;13.63;;
2972;SDS011;1496;51.404;7.232;2023-05-10T03:52:56;18.97;;;12.47;;
2972;SDS011;1496;51.404;7.232;2023-05-10T03:55:23;15.53;;;10.90;;
2972;SDS011;1496;51.404;7.232;2023-05-10T03:57:50;17.07;;;12.10;;
2972;SDS011;1496;51.404;7.232;2023-05-10T04:00:20;26.30;;;13.20;;
2972;SDS011;1496;51.404;7.232;2023-05-10T04:02:51;16.63;;;11.87;;
2972;SDS011;1496;51.404;7.232;2023-05-10T04:05:19;19.13;;;12.73;;
2972;SDS011;1496;51.404;7.232;2023-05-10T04:07:46;17.77;;;12.30;;
2972;SDS011;1496;51.404;7.232;2023-05-10T04:10:15;17.20;;;12.20;;
2972;SDS011;1496;51.404;7.232;2023-05-10T04:12:42;21.10;;;13.83;;
2972;SDS011;1496;51.404;7.232;2023-05-10T04:15:11;18.70;;;13.73;;
2972;SDS011;1496;51.404;7.232;2023-05-10T04:17:39;19.80;;;12.73;;
2972;SDS011;1496;51.404;7.232;2023-05-10T04:20:07;16.50;;;11.53;;
2972;SDS011;1496;51.404;7.232;2023-05-10T04:22:33;17.50;;;11.87;;
2972;SDS011;1496;51.404;7.232;2023-05-10T04:25:06;22.93;;;12.10;;
2972;SDS011;1496;51.404;7.232;2023-05-10T04:27:34;18.63;;;12.97;;
2972;SDS011;1496;51.404;7.232;2023-05-10T04:30:04;18.87;;;12.50;;
2972;SDS011;1496;51.404;7.232;2023-05-10T04:32:34;21.50;;;12.33;;
2972;SDS011;1496;51.404;7.232;2023-05-10T04:35:04;20.10;;;12.20;;
2972;SDS011;1496;51.404;7.232;2023-05-10T04:37:31;22.30;;;14.23;;
2972;SDS011;1496;51.404;7.232;2023-05-10T04:39:59;19.60;;;12.30;;
2972;SDS011;1496;51.404;7.232;2023-05-10T04:42:27;22.70;;;14.60;;
2972;SDS011;1496;51.404;7.232;2023-05-10T04:44:53;21.77;;;13.43;;
2972;SDS011;1496;51.404;7.232;2023-05-10T04:47:21;23.83;;;14.93;;
2972;SDS011;1496;51.404;7.232;2023-05-10T04:49:47;27.33;;;15.60;;
2972;SDS011;1496;51.404;7.232;2023-05-10T04:52:14;29.57;;;16.07;;
2972;SDS011;1496;51.404;7.232;2023-05-10T04:54:43;28.87;;;17.20;;
2972;SDS011;1496;51.404;7.232;2023-05-10T04:57:11;26.17;;;16.40;;
2972;SDS011;1496;51.404;7.232;2023-05-10T04:59:39;30.87;;;18.23;;
2972;SDS011;1496;51.404;7.232;2023-05-10T05:02:08;36.23;;;18.43;;
2972;SDS011;1496;51.404;7.232;2023-05-10T05:04:35;32.77;;;19.97;;
2972;SDS011;1496;51.404;7.232;2023-05-10T05:07:02;35.07;;;20.10;;
2972;SDS011;1496;51.404;7.232;2023-05-10T05:09:29;31.43;;;18.13;;
2972;SDS011;1496;51.404;7.232;2023-05-10T05:11:58;41.23;;;20.70;;
2972;SDS011;1496;51.404;7.232;2023-05-10T05:14:24;42.67;;;20.37;;
2972;SDS011;1496;51.404;7.232;2023-05-10T05:16:52;37.60;;;19.87;;
2972;SDS011;1496;51.404;7.232;2023-05-10T05:19:18;34.77;;;20.93;;
2972;SDS011;1496;51.404;7.232;2023-05-10T05:21:46;33.43;;;19.70;;
2972;SDS011;1496;51.404;7.232;2023-05-10T05:24:14;45.43;;;21.47;;
2972;SDS011;1496;51.404;7.232;2023-05-10T05:26:41;40.63;;;22.07;;
2972;SDS011;1496;51.404;7.232;2023-05-10T05:29:08;40.53;;;22.40;;
2972;SDS011;1496;51.404;7.232;2023-05-10T05:31:35;38.27;;;20.07;;
2972;SDS011;1496;51.404;7.232;2023-05-10T05:34:02;37.83;;;21.40;;
2972;SDS011;1496;51.404;7.232;2023-05-10T05:36:29;40.37;;;21.33;;
2972;SDS011;1496;51.404;7.232;2023-05-10T05:38:57;32.53;;;19.20;;
2972;SDS011;1496;51.404;7.232;2023-05-10T05:41:24;38.60;;;19.70;;
2972;SDS011;1496;51.404;7.232;2023-05-10T05:43:51;43.63;;;22.73;;
2972;SDS011;1496;51.404;7.232;2023-05-10T05:46:19;36.27;;;18.50;;
2972;SDS011;1496;51.404;7.232;2023-05-10T05:48:47;33.87;;;20.03;;
2972;SDS011;1496;51.404;7.232;2023-05-10T05:51:13;38.47;;;21.90;;
2972;SDS011;1496;51.404;7.232;2023-05-10T05:53:40;38.50;;;21.80;;
2972;SDS011;1496;51.404;7.232;2023-05-10T05:56:07;42.57;;;22.40;;
2972;SDS011;1496;51.404;7.232;2023-05-10T05:58:35;42.50;;;22.67;;
2972;SDS011;1496;51.404;7.232;2023-05-10T06:01:02;42.13;;;21.77;;
2972;SDS011;1496;51.404;7.232;2023-05-10T06:03:28;40.67;;;21.60;;
2972;SDS011;1496;51.404;7.232;2023-05-10T06:05:56;43.80;;;23.10;;
2972;SDS011;1496;51.404;7.232;2023-05-10T06:08:23;44.73;;;23.67;;
2972;SDS011;1496;51.404;7.232;2023-05-10T06:10:51;43.07;;;23.37;;
2972;SDS011;1496;51.404;7.232;2023-05-10T06:13:18;42.27;;;23.00;;
2972;SDS011;1496;51.404;7.232;2023-05-10T06:15:44;46.33;;;23.50;;
2972;SDS011;1496;51.404;7.232;2023-05-10T06:18:12;43.27;;;22.13;;
2972;SDS011;1496;51.404;7.232;2023-05-10T06:20:41;45.60;;;23.97;;
2972;SDS011;1496;51.404;7.232;2023-05-10T06:23:09;43.73;;;22.63;;
2972;SDS011;1496;51.404;7.232;2023-05-10T06:25:35;38.13;;;22.93;;
2972;SDS011;1496;51.404;7.232;2023-05-10T06:28:01;37.47;;;20.57;;
2972;SDS011;1496;51.404;7.232;2023-05-10T06:30:28;34.47;;;20.37;;
2972;SDS011;1496;51.404;7.232;2023-05-10T06:32:55;43.67;;;22.90;;
2972;SDS011;1496;51.404;7.232;2023-05-10T06:35:22;42.07;;;23.20;;
2972;SDS011;1496;51.404;7.232;2023-05-10T06:37:50;33.57;;;20.60;;
2972;SDS011;1496;51.404;7.232;2023-05-10T06:40:17;39.97;;;21.60;;
2972;SDS011;1496;51.404;7.232;2023-05-10T06:42:45;37.17;;;21.50;;
2972;SDS011;1496;51.404;7.232;2023-05-10T06:45:12;44.70;;;23.10;;
2972;SDS011;1496;51.404;7.232;2023-05-10T06:47:40;38.70;;;21.67;;
2972;SDS011;1496;51.404;7.232;2023-05-10T06:50:08;41.97;;;22.23;;
2972;SDS011;1496;51.404;7.232;2023-05-10T06:52:37;42.97;;;23.00;;
2972;SDS011;1496;51.404;7.232;2023-05-10T06:55:04;35.87;;;22.20;;
2972;SDS011;1496;51.404;7.232;2023-05-10T06:57:31;36.77;;;21.10;;
2972;SDS011;1496;51.404;7.232;2023-05-10T07:00:00;35.77;;;22.50;;
2972;SDS011;1496;51.404;7.232;2023-05-10T07:02:29;37.80;;;21.30;;
2972;SDS011;1496;51.404;7.232;2023-05-10T07:04:56;44.90;;;22.13;;
2972;SDS011;1496;51.404;7.232;2023-05-10T07:07:23;36.17;;;22.63;;
2972;SDS011;1496;51.404;7.232;2023-05-10T07:09:52;45.30;;;23.37;;
2972;SDS011;1496;51.404;7.232;2023-05-10T07:12:18;38.63;;;22.40;;
2972;SDS011;1496;51.404;7.232;2023-05-10T07:14:45;39.90;;;22.30;;
2972;SDS011;1496;51.404;7.232;2023-05-10T07:17:12;46.90;;;25.03;;
2972;SDS011;1496;51.404;7.232;2023-05-10T07:19:39;48.07;;;25.87;;
2972;SDS011;1496;51.404;7.232;2023-05-10T07:22:09;47.30;;;26.00;;
2972;SDS011;1496;51.404;7.232;2023-05-10T07:24:35;46.77;;;26.07;;
2972;SDS011;1496;51.404;7.232;2023-05-10T07:27:02;54.43;;;26.27;;
2972;SDS011;1496;51.404;7.232;2023-05-10T07:29:31;69.13;;;31.00;;
2972;SDS011;1496;51.404;7.232;2023-05-10T07:32:00;55.93;;;29.10;;
2972;SDS011;1496;51.404;7.232;2023-05-10T07:34:27;58.10;;;30.23;;
2972;SDS011;1496;51.404;7.232;2023-05-10T07:36:55;55.70;;;27.73;;
2972;SDS011;1496;51.404;7.232;2023-05-10T07:42:19;45.63;;;24.33;;
2972;SDS011;1496;51.404;7.232;2023-05-10T07:44:45;40.70;;;21.37;;
2972;SDS011;1496;51.404;7.232;2023-05-10T07:47:12;41.60;;;22.97;;
2972;SDS011;1496;51.404;7.232;2023-05-10T07:49:39;34.40;;;19.73;;
2972;SDS011;1496;51.404;7.232;2023-05-10T07:52:06;30.20;;;17.40;;
2972;SDS011;1496;51.404;7.232;2023-05-10T07:54:32;34.17;;;18.27;;
2972;SDS011;1496;51.404;7.232;2023-05-10T07:57:00;30.70;;;16.53;;
2972;SDS011;1496;51.404;7.232;2023-05-10T07:59:26;27.03;;;15.77;;
2972;SDS011;1496;51.404;7.232;2023-05-10T08:01:53;26.60;;;15.13;;
2972;SDS011;1496;51.404;7.232;2023-05-10T08:04:21;26.17;;;14.60;;
2972;SDS011;1496;51.404;7.232;2023-05-10T08:06:49;30.10;;;16.00;;
2972;SDS011;1496;51.404;7.232;2023-05-10T08:09:16;28.70;;;16.10;;
2972;SDS011;1496;51.404;7.232;2023-05-10T08:11:50;35.00;;;18.57;;
2972;SDS011;1496;51.404;7.232;2023-05-10T08:14:16;36.90;;;17.80;;
2972;SDS011;1496;51.404;7.232;2023-05-10T08:16:44;27.60;;;15.20;;
2972;SDS011;1496;51.404;7.232;2023-05-10T08:19:12;36.00;;;18.10;;
2972;SDS011;1496;51.404;7.232;2023-05-10T08:21:39;34.67;;;18.97;;
2972;SDS011;1496;51.404;7.232;2023-05-10T08:24:06;39.37;;;16.77;;
2972;SDS011;1496;51.404;7.232;2023-05-10T08:26:32;31.10;;;17.00;;
2972;SDS011;1496;51.404;7.232;2023-05-10T08:29:00;31.90;;;17.87;;
2972;SDS011;1496;51.404;7.232;2023-05-10T08:31:26;29.60;;;16.37;;
2972;SDS011;1496;51.404;7.232;2023-05-10T08:33:54;30.60;;;17.40;;
2972;SDS011;1496;51.404;7.232;2023-05-10T08:36:20;37.23;;;16.90;;
2972;SDS011;1496;51.404;7.232;2023-05-10T08:38:52;28.83;;;17.30;;
2972;SDS011;1496;51.404;7.232;2023-05-10T08:41:21;29.63;;;16.20;;
2972;SDS011;1496;51.404;7.232;2023-05-10T08:43:51;28.00;;;15.83;;
2972;SDS011;1496;51.404;7.232;2023-05-10T08:46:19;32.03;;;15.40;;
2972;SDS011;1496;51.404;7.232;2023-05-10T08:48:48;26.47;;;15.03;;
2972;SDS011;1496;51.404;7.232;2023-05-10T08:51:19;24.13;;;13.43;;
2972;SDS011;1496;51.404;7.232;2023-05-10T08:53:53;21.90;;;12.07;;
2972;SDS011;1496;51.404;7.232;2023-05-10T08:56:20;19.17;;;10.63;;
2972;SDS011;1496;51.404;7.232;2023-05-10T08:58:47;14.13;;;9.57;;
2972;SDS011;1496;51.404;7.232;2023-05-10T09:01:16;13.80;;;8.60;;
2972;SDS011;1496;51.404;7.232;2023-05-10T09:03:46;13.20;;;8.47;;
2972;SDS011;1496;51.404;7.232;2023-05-10T09:06:14;16.87;;;10.13;;
2972;SDS011;1496;51.404;7.232;2023-05-10T09:08:41;21.40;;;10.80;;
2972;SDS011;1496;51.404;7.232;2023-05-10T09:11:08;18.07;;;10.40;;
2972;SDS011;1496;51.404;7.232;2023-05-10T09:13:36;21.47;;;10.23;;
2972;SDS011;1496;51.404;7.232;2023-05-10T09:16:02;21.87;;;11.90;;
2972;SDS011;1496;51.404;7.232;2023-05-10T09:18:30;18.27;;;10.57;;
2972;SDS011;1496;51.404;7.232;2023-05-10T09:20:56;24.23;;;12.30;;
2972;SDS011;1496;51.404;7.232;2023-05-10T09:23:24;21.93;;;10.93;;
2972;SDS011;1496;51.404;7.232;2023-05-10T09:26:06;17.83;;;10.70;;
2972;SDS011;1496;51.404;7.232;2023-05-10T09:28:34;16.07;;;10.30;;
2972;SDS011;1496;51.404;7.232;2023-05-10T09:31:23;17.80;;;10.40;;
2972;SDS011;1496;51.404;7.232;2023-05-10T09:34:11;18.30;;;10.93;;
2972;SDS011;1496;51.404;7.232;2023-05-10T09:36:52;18.83;;;10.57;;
2972;SDS011;1496;51.404;7.232;2023-05-10T09:39:33;16.47;;;10.80;;
2972;SDS011;1496;51.404;7.232;2023-05-10T09:42:11;18.17;;;10.93;;
2972;SDS011;1496;51.404;7.232;2023-05-10T09:44:44;16.67;;;10.00;;
2972;SDS011;1496;51.404;7.232;2023-05-10T09:47:16;15.87;;;10.60;;
2972;SDS011;1496;51.404;7.232;2023-05-10T09:49:50;17.30;;;10.33;;
2972;SDS011;1496;51.404;7.232;2023-05-10T09:52:19;21.83;;;11.53;;
2972;SDS011;1496;51.404;7.232;2023-05-10T09:54:45;23.13;;;12.50;;
2972;SDS011;1496;51.404;7.232;2023-05-10T09:57:23;25.80;;;13.60;;
2972;SDS011;1496;51.404;7.232;2023-05-10T09:59:51;26.10;;;13.70;;
2972;SDS011;1496;51.404;7.232;2023-05-10T10:02:19;28.87;;;14.67;;
2972;SDS011;1496;51.404;7.232;2023-05-10T10:04:49;27.40;;;13.60;;
2972;SDS011;1496;51.404;7.232;2023-05-10T10:07:17;21.40;;;12.83;;
2972;SDS011;1496;51.404;7.232;2023-05-10T10:09:50;23.77;;;13.53;;
2972;SDS011;1496;51.404;7.232;2023-05-10T10:12:16;19.83;;;12.63;;
2972;SDS011;1496;51.404;7.232;2023-05-10T10:14:44;22.97;;;13.10;;
2972;SDS011;1496;51.404;7.232;2023-05-10T10:17:17;27.57;;;14.83;;
2972;SDS011;1496;51.404;7.232;2023-05-10T10:19:45;42.33;;;20.57;;
2972;SDS011;1496;51.404;7.232;2023-05-10T10:22:12;39.93;;;19.80;;
2972;SDS011;1496;51.404;7.232;2023-05-10T10:24:39;36.23;;;19.83;;
2972;SDS011;1496;51.404;7.232;2023-05-10T10:29:59;38.97;;;18.13;;
2972;SDS011;1496;51.404;7.232;2023-05-10T10:32:53;28.90;;;16.60;;
2972;SDS011;1496;51.404;7.232;2023-05-10T10:35:40;27.60;;;15.57;;
2972;SDS011;1496;51.404;7.232;2023-05-10T10:38:11;24.73;;;13.80;;
2972;SDS011;1496;51.404;7.232;2023-05-10T10:40:39;24.67;;;14.73;;
2972;SDS011;1496;51.404;7.232;2023-05-10T10:43:25;25.03;;;14.60;;
2972;SDS011;1496;51.404;7.232;2023-05-10T10:48:47;25.80;;;15.60;;
2972;SDS011;1496;51.404;7.232;2023-05-10T10:51:37;27.33;;;15.70;;
2972;SDS011;1496;51.404;7.232;2023-05-10T10:54:09;20.50;;;13.03;;
2972;SDS011;1496;51.404;7.232;2023-05-10T10:56:37;18.73;;;11.93;;
2972;SDS011;1496;51.404;7.232;2023-05-10T10:59:05;18.43;;;11.73;;
2972;SDS011;1496;51.404;7.232;2023-05-10T11:01:34;16.30;;;11.40;;
2972;SDS011;1496;51.404;7.232;2023-05-10T11:06:31;17.17;;;11.67;;
2972;SDS011;1496;51.404;7.232;2023-05-10T11:09:12;18.57;;;11.23;;
2972;SDS011;1496;51.404;7.232;2023-05-10T11:11:49;20.50;;;12.10;;
2972;SDS011;1496;51.404;7.232;2023-05-10T11:14:24;16.07;;;11.53;;
2972;SDS011;1496;51.404;7.232;2023-05-10T11:16:52;19.57;;;12.40;;
2972;SDS011;1496;51.404;7.232;2023-05-10T11:19:19;20.20;;;12.00;;
2972;SDS011;1496;51.404;7.232;2023-05-10T11:25:28;20.13;;;12.63;;
2972;SDS011;1496;51.404;7.232;2023-05-10T11:27:56;16.43;;;12.40;;
2972;SDS011;1496;51.404;7.232;2023-05-10T11:30:33;22.37;;;13.00;;
2972;SDS011;1496;51.404;7.232;2023-05-10T11:33:00;21.47;;;13.10;;
2972;SDS011;1496;51.404;7.232;2023-05-10T11:35:27;23.27;;;14.37;;
2972;SDS011;1496;51.404;7.232;2023-05-10T11:37:56;22.73;;;15.33;;
2972;SDS011;1496;51.404;7.232;2023-05-10T11:40:24;23.90;;;17.03;;
2972;SDS011;1496;51.404;7.232;2023-05-10T11:42:51;24.40;;;14.93;;
2972;SDS011;1496;51.404;7.232;2023-05-10T11:45:23;20.83;;;14.23;;
2972;SDS011;1496;51.404;7.232;2023-05-10T11:47:51;20.87;;;13.60;;
2972;SDS011;1496;51.404;7.232;2023-05-10T11:50:20;19.70;;;13.50;;
2972;SDS011;1496;51.404;7.232;2023-05-10T11:52:50;19.23;;;13.63;;
2972;SDS011;1496;51.404;7.232;2023-05-10T11:55:22;23.90;;;15.87;;
2972;SDS011;1496;51.404;7.232;2023-05-10T11:57:51;27.60;;;17.40;;
2972;SDS011;1496;51.404;7.232;2023-05-10T12:00:27;23.63;;;17.00;;
2972;SDS011;1496;51.404;7.232;2023-05-10T12:02:56;24.10;;;16.50;;
2972;SDS011;1496;51.404;7.232;2023-05-10T12:05:25;24.03;;;16.40;;
2972;SDS011;1496;51.404;7.232;2023-05-10T12:08:10;24.27;;;16.30;;
2972;SDS011;1496;51.404;7.232;2023-05-10T12:10:40;20.13;;;14.07;;
2972;SDS011;1496;51.404;7.232;2023-05-10T12:13:10;21.10;;;13.07;;
2972;SDS011;1496;51.404;7.232;2023-05-10T12:15:45;18.97;;;12.70;;
2972;SDS011;1496;51.404;7.232;2023-05-10T12:18:13;17.80;;;12.10;;
2972;SDS011;1496;51.404;7.232;2023-05-10T12:20:53;19.23;;;11.40;;
2972;SDS011;1496;51.404;7.232;2023-05-10T12:23:29;20.30;;;11.07;;
2972;SDS011;1496;51.404;7.232;2023-05-10T12:26:01;19.00;;;12.50;;
2972;SDS011;1496;51.404;7.232;2023-05-10T12:28:36;16.97;;;11.30;;
2972;SDS011;1496;51.404;7.232;2023-05-10T12:31:05;17.20;;;11.60;;
2972;SDS011;1496;51.404;7.232;2023-05-10T12:33:36;16.87;;;11.90;;
2972;SDS011;1496;51.404;7.232;2023-05-10T12:36:08;16.77;;;10.30;;
2972;SDS011;1496;51.404;7.232;2023-05-10T12:38:45;19.00;;;11.60;;
2972;SDS011;1496;51.404;7.232;2023-05-10T12:41:16;21.83;;;12.80;;
2972;SDS011;1496;51.404;7.232;2023-05-10T12:43:54;23.73;;;11.90;;
2972;SDS011;1496;51.404;7.232;2023-05-10T12:46:36;27.50;;;14.40;;
2972;SDS011;1496;51.404;7.232;2023-05-10T12:49:07;34.83;;;15.60;;
2972;SDS011;1496;51.404;7.232;2023-05-10T12:51:34;36.40;;;13.40;;
2972;SDS011;1496;51.404;7.232;2023-05-10T12:54:02;33.13;;;15.43;;
2972;SDS011;1496;51.404;7.232;2023-05-10T12:56:29;27.27;;;14.70;;
2972;SDS011;1496;51.404;7.232;2023-05-10T12:58:55;22.67;;;12.40;;
2972;SDS011;1496;51.404;7.232;2023-05-10T13:01:50;27.97;;;12.53;;
2972;SDS011;1496;51.404;7.232;2023-05-10T13:04:17;28.30;;;11.77;;
2972;SDS011;1496;51.404;7.232;2023-05-10T13:06:44;25.03;;;10.73;;
2972;SDS011;1496;51.404;7.232;2023-05-10T13:09:10;32.50;;;12.13;;
2972;SDS011;1496;51.404;7.232;2023-05-10T13:11:38;34.80;;;12.73;;
2972;SDS011;1496;51.404;7.232;2023-05-10T13:14:05;29.90;;;14.00;;
2972;SDS011;1496;51.404;7.232;2023-05-10T13:16:39;34.00;;;14.53;;
2972;SDS011;1496;51.404;7.232;2023-05-10T13:19:09;35.50;;;15.10;;
2972;SDS011;1496;51.404;7.232;2023-05-10T13:21:37;34.00;;;14.87;;
2972;SDS011;1496;51.404;7.232;2023-05-10T13:24:06;34.77;;;14.70;;
2972;SDS011;1496;51.404;7.232;2023-05-10T13:26:43;25.57;;;14.00;;
2972;SDS011;1496;51.404;7.232;2023-05-10T13:29:28;18.93;;;12.33;;
2972;SDS011;1496;51.404;7.232;2023-05-10T13:32:01;16.50;;;11.97;;
2972;SDS011;1496;51.404;7.232;2023-05-10T13:34:31;32.93;;;12.00;;
2972;SDS011;1496;51.404;7.232;2023-05-10T13:37:03;17.80;;;11.90;;
2972;SDS011;1496;51.404;7.232;2023-05-10T13:40:10;15.03;;;11.77;;
2972;SDS011;1496;51.404;7.232;2023-05-10T13:42:49;12.57;;;11.27;;
2972;SDS011;1496;51.404;7.232;2023-05-10T13:45:16;15.97;;;11.47;;
2972;SDS011;1496;51.404;7.232;2023-05-10T13:47:42;14.23;;;11.60;;
2972;SDS011;1496;51.404;7.232;2023-05-10T13:50:09;12.13;;;10.77;;
2972;SDS011;1496;51.404;7.232;2023-05-10T13:52:45;12.10;;;9.27;;
2972;SDS011;1496;51.404;7.232;2023-05-10T13:55:13;13.23;;;10.90;;
2972;SDS011;1496;51.404;7.232;2023-05-10T13:57:40;11.77;;;10.17;;
2972;SDS011;1496;51.404;7.232;2023-05-10T14:00:09;14.40;;;8.47;;
2972;SDS011;1496;51.404;7.232;2023-05-10T14:02:36;8.43;;;7.13;;
2972;SDS011;1496;51.404;7.232;2023-05-10T14:05:03;5.80;;;4.77;;
2972;SDS011;1496;51.404;7.232;2023-05-10T14:07:30;5.77;;;5.00;;
2972;SDS011;1496;51.404;7.232;2023-05-10T14:09:57;5.77;;;4.20;;
2972;SDS011;1496;51.404;7.232;2023-05-10T14:12:24;5.80;;;3.93;;
2972;SDS011;1496;51.404;7.232;2023-05-10T14:14:51;5.27;;;4.43;;
2972;SDS011;1496;51.404;7.232;2023-05-10T14:17:17;12.23;;;5.30;;
2972;SDS011;1496;51.404;7.232;2023-05-10T14:19:45;7.20;;;5.40;;
2972;SDS011;1496;51.404;7.232;2023-05-10T14:22:12;9.60;;;5.50;;
2972;SDS011;1496;51.404;7.232;2023-05-10T14:24:40;6.30;;;4.43;;
2972;SDS011;1496;51.404;7.232;2023-05-10T14:27:12;8.03;;;5.80;;
2972;SDS011;1496;51.404;7.232;2023-05-10T14:29:40;7.90;;;5.47;;
2972;SDS011;1496;51.404;7.232;2023-05-10T14:32:09;6.93;;;5.53;;
2972;SDS011;1496;51.404;7.232;2023-05-10T14:34:36;9.87;;;6.90;;
2972;SDS011;1496;51.404;7.232;2023-05-10T14:37:03;9.07;;;6.90;;
2972;SDS011;1496;51.404;7.232;2023-05-10T14:39:30;7.40;;;5.90;;
2972;SDS011;1496;51.404;7.232;2023-05-10T14:41:58;7.83;;;6.30;;
2972;SDS011;1496;51.404;7.232;2023-05-10T14:47:22;8.93;;;6.50;;
2972;SDS011;1496;51.404;7.232;2023-05-10T14:49:49;9.20;;;6.03;;
2972;SDS011;1496;51.404;7.232;2023-05-10T14:52:20;9.20;;;6.87;;
2972;SDS011;1496;51.404;7.232;2023-05-10T14:54:53;8.53;;;7.63;;
2972;SDS011;1496;51.404;7.232;2023-05-10T14:57:37;8.60;;;6.70;;
2972;SDS011;1496;51.404;7.232;2023-05-10T15:00:07;9.00;;;7.37;;
2972;SDS011;1496;51.404;7.232;2023-05-10T15:02:35;12.37;;;7.10;;
2972;SDS011;1496;51.404;7.232;2023-05-10T15:05:02;12.17;;;6.93;;
2972;SDS011;1496;51.404;7.232;2023-05-10T15:07:30;8.77;;;6.70;;
2972;SDS011;1496;51.404;7.232;2023-05-10T15:09:57;9.00;;;5.87;;
2972;SDS011;1496;51.404;7.232;2023-05-10T15:12:27;8.33;;;5.93;;
2972;SDS011;1496;51.404;7.232;2023-05-10T15:14:54;7.20;;;6.50;;
2972;SDS011;1496;51.404;7.232;2023-05-10T15:17:21;9.10;;;7.80;;
2972;SDS011;1496;51.404;7.232;2023-05-10T15:19:48;9.50;;;6.87;;
2972;SDS011;1496;51.404;7.232;2023-05-10T15:22:18;7.00;;;6.30;;
2972;SDS011;1496;51.404;7.232;2023-05-10T15:24:45;13.57;;;8.17;;
2972;SDS011;1496;51.404;7.232;2023-05-10T15:27:12;13.87;;;7.90;;
2972;SDS011;1496;51.404;7.232;2023-05-10T15:29:38;10.83;;;7.67;;
2972;SDS011;1496;51.404;7.232;2023-05-10T15:32:09;14.23;;;8.70;;
2972;SDS011;1496;51.404;7.232;2023-05-10T15:34:39;16.70;;;8.73;;
2972;SDS011;1496;51.404;7.232;2023-05-10T15:37:07;14.50;;;10.20;;
2972;SDS011;1496;51.404;7.232;2023-05-10T15:39:33;11.83;;;9.20;;
2972;SDS011;1496;51.404;7.232;2023-05-10T15:42:00;12.83;;;8.93;;
2972;SDS011;1496;51.404;7.232;2023-05-10T15:44:27;10.30;;;8.77;;
2972;SDS011;1496;51.404;7.232;2023-05-10T15:46:53;15.83;;;9.77;;
2972;SDS011;1496;51.404;7.232;2023-05-10T15:49:20;14.40;;;10.27;;
2972;SDS011;1496;51.404;7.232;2023-05-10T15:51:48;16.23;;;10.20;;
2972;SDS011;1496;51.404;7.232;2023-05-10T15:54:14;16.20;;;11.23;;
2972;SDS011;1496;51.404;7.232;2023-05-10T15:56:44;15.90;;;11.80;;
2972;SDS011;1496;51.404;7.232;2023-05-10T15:59:12;17.60;;;12.47;;